Ship Status Report: callsign D5IR8

sailwx.info

Track history (hours):
 
Tides and Currents Weather Stations Pressure Air Temp Water Temp Dewpoint Dewpoint Depression Visibility Wind Speed Wind Dir Waves Ship Positions

Callsign D5IR8 (name unknown)

Last reported at 2018-May-29 17:31 UTC. Time now 2018-Jun-23 16:05 UTC.
Position N 32°14' E 034°37'.
Warning: this ship's position is 24 days out of date.

Date/timePositionNaut miles runAvg speedWind from/ knotsBaromVisibWave heightAir tempDewpointWater temp
2018-May-29 17:31N 32°14' E 034°37'23 0.8
2018-May-28 11:29N 31°51' E 034°38'186 4.6
2018-May-26 18:48N 34°39' E 033°04'2 6.2
2018-May-26 18:30N 34°39' E 033°02'1 1.0
2018-May-26 17:57N 34°39' E 033°01'0 0.0
2018-May-26 17:30N 34°39' E 033°01'0 0.0
2018-May-26 16:51N 34°39' E 033°01'0 0.0
2018-May-26 16:15N 34°39' E 033°01'0 0.0
2018-May-26 16:00N 34°39' E 033°01'0 0.0
2018-May-26 15:30N 34°39' E 033°01'0 0.0
2018-May-26 15:00N 34°39' E 033°01'0 0.0
2018-May-26 14:30N 34°39' E 033°01'0 0.0
2018-May-26 14:00N 34°39' E 033°01'0 0.0
2018-May-26 13:30N 34°39' E 033°01'0 0.0
2018-May-26 11:09N 34°39' E 033°01'0 0.0
2018-May-26 10:42N 34°39' E 033°01'0 0.0
2018-May-26 10:18N 34°39' E 033°01'0 0.0
2018-May-26 08:17N 34°39' E 033°01'0 0.0
2018-May-26 07:47N 34°39' E 033°01'0 0.0
2018-May-26 07:29N 34°39' E 033°01'0 0.0
2018-May-26 06:59N 34°39' E 033°01'0 0.0
2018-May-26 06:29N 34°39' E 033°01'0 0.0
2018-May-26 05:29N 34°39' E 033°01'0 0.0
2018-May-26 04:59N 34°39' E 033°01'0 0.0
2018-May-26 04:29N 34°39' E 033°01'0 0.0
2018-May-26 03:59N 34°39' E 033°01'0 0.0
2018-May-26 03:29N 34°39' E 033°01'0 0.0
2018-May-26 02:59N 34°39' E 033°01'0 0.7
2018-May-26 02:30N 34°39' E 033°01'2 4.1
2018-May-26 02:00N 34°39' E 033°04'  
2018-May-23 15:54N 36°23' E 014°56'716.5
2018-May-23 15:28N 36°25' E 014°48'816.3
2018-May-23 15:00N 36°27' E 014°38'816.3
2018-May-23 14:30N 36°29' E 014°29'816.2
2018-May-23 14:00N 36°31' E 014°19'816.5
2018-May-23 13:30N 36°33' E 014°09'816.9
2018-May-23 13:00N 36°35' E 013°59'817.0
2018-May-23 12:30N 36°38' E 013°48'1116.8
2018-May-23 11:49N 36°41' E 013°35'516.6
2018-May-23 11:30N 36°42' E 013°28'63416.7
2018-May-21 21:34N 36°39' E 000°18'317.3
2018-May-21 21:25N 36°38' E 000°14'817.1
2018-May-21 20:58N 36°37' E 000°05'816.8
2018-May-21 20:30N 36°36' W 000°05'2816.7
2018-May-21 18:50N 36°32' W 000°39'22217.3
2018-May-21 06:00N 35°59' W 005°12'918.7
2018-May-21 05:30N 35°58' W 005°24'917.0
2018-May-21 04:59N 35°55' W 005°34'1214.8
2018-May-21 04:12N 35°54' W 005°48'315.3
2018-May-21 04:01N 35°53' W 005°52'15016.6
2018-May-20 18:58N 36°27' W 008°53'1516.6
2018-May-20 18:05N 36°32' W 009°11'216.6
2018-May-20 17:58N 36°32' W 009°13'2716.0
2018-May-20 16:16N 36°52' W 009°36'416.8
2018-May-20 16:00N 36°56' W 009°37'1716.9
2018-May-20 15:00N 37°13' W 009°41'916.9
2018-May-20 14:29N 37°22' W 009°44'817.0
2018-May-20 14:00N 37°30' W 009°46'916.9
2018-May-20 13:27N 37°39' W 009°49'716.8
2018-May-20 13:00N 37°46' W 009°51'816.6
2018-May-20 12:30N 37°54' W 009°54'816.5
2018-May-20 12:00N 38°02' W 009°56'816.9
2018-May-20 11:30N 38°10' W 009°58'816.9
2018-May-20 11:00N 38°18' W 010°00'816.9
2018-May-20 10:30N 38°27' W 010°03'917.1
2018-May-20 10:00N 38°35' W 010°05'816.9
2018-May-20 09:30N 38°43' W 010°07'917.0
2018-May-20 09:00N 38°52' W 010°07'817.1
2018-May-20 08:30N 39°01' W 010°07'916.9
2018-May-20 08:00N 39°09' W 010°07'816.6
2018-May-20 07:30N 39°17' W 010°07'816.6
2018-May-20 07:00N 39°26' W 010°07'916.6
2018-May-20 06:28N 39°34' W 010°07'1016.7
2018-May-20 05:53N 39°44' W 010°07'716.8
2018-May-20 05:28N 39°51' W 010°07'816.5
2018-May-20 05:00N 39°59' W 010°07'916.7
2018-May-20 04:28N 40°08' W 010°07'6916.7
2018-May-20 00:20N 41°17' W 010°09'617.1
2018-May-20 00:00N 41°23' W 010°09'917.3
2018-May-19 23:30N 41°31' W 010°08'  
Track history (hours):
 
Tides and Currents Weather Stations Pressure Air Temp Water Temp Dewpoint Dewpoint Depression Visibility Wind Speed Wind Dir Waves Ship Positions

Callsign D5IR8 (name unknown)

Last reported at 2018-May-29 17:31 UTC. Time now 2018-Jun-23 16:05 UTC.
Position N 32°14' E 034°37'.
Warning: this ship's position is 24 days out of date.

Date/timePositionNaut miles runAvg speedWind from/ knotsBaromVisibWave heightAir tempDewpointWater temp
2018-May-29 17:31N 32°14' E 034°37'23 0.8
2018-May-28 11:29N 31°51' E 034°38'186 4.6
2018-May-26 18:48N 34°39' E 033°04'2 6.2
2018-May-26 18:30N 34°39' E 033°02'1 1.0
2018-May-26 17:57N 34°39' E 033°01'0 0.0
2018-May-26 17:30N 34°39' E 033°01'0 0.0
2018-May-26 16:51N 34°39' E 033°01'0 0.0
2018-May-26 16:15N 34°39' E 033°01'0 0.0
2018-May-26 16:00N 34°39' E 033°01'0 0.0
2018-May-26 15:30N 34°39' E 033°01'0 0.0
2018-May-26 15:00N 34°39' E 033°01'0 0.0
2018-May-26 14:30N 34°39' E 033°01'0 0.0
2018-May-26 14:00N 34°39' E 033°01'0 0.0
2018-May-26 13:30N 34°39' E 033°01'0 0.0
2018-May-26 11:09N 34°39' E 033°01'0 0.0
2018-May-26 10:42N 34°39' E 033°01'0 0.0
2018-May-26 10:18N 34°39' E 033°01'0 0.0
2018-May-26 08:17N 34°39' E 033°01'0 0.0
2018-May-26 07:47N 34°39' E 033°01'0 0.0
2018-May-26 07:29N 34°39' E 033°01'0 0.0
2018-May-26 06:59N 34°39' E 033°01'0 0.0
2018-May-26 06:29N 34°39' E 033°01'0 0.0
2018-May-26 05:29N 34°39' E 033°01'0 0.0
2018-May-26 04:59N 34°39' E 033°01'0 0.0
2018-May-26 04:29N 34°39' E 033°01'0 0.0
2018-May-26 03:59N 34°39' E 033°01'0 0.0
2018-May-26 03:29N 34°39' E 033°01'0 0.0
2018-May-26 02:59N 34°39' E 033°01'0 0.7
2018-May-26 02:30N 34°39' E 033°01'2 4.1
2018-May-26 02:00N 34°39' E 033°04'  
2018-May-23 15:54N 36°23' E 014°56'716.5
2018-May-23 15:28N 36°25' E 014°48'816.3
2018-May-23 15:00N 36°27' E 014°38'816.3
2018-May-23 14:30N 36°29' E 014°29'816.2
2018-May-23 14:00N 36°31' E 014°19'816.5
2018-May-23 13:30N 36°33' E 014°09'816.9
2018-May-23 13:00N 36°35' E 013°59'817.0
2018-May-23 12:30N 36°38' E 013°48'1116.8
2018-May-23 11:49N 36°41' E 013°35'516.6
2018-May-23 11:30N 36°42' E 013°28'63416.7
2018-May-21 21:34N 36°39' E 000°18'317.3
2018-May-21 21:25N 36°38' E 000°14'817.1
2018-May-21 20:58N 36°37' E 000°05'816.8
2018-May-21 20:30N 36°36' W 000°05'2816.7
2018-May-21 18:50N 36°32' W 000°39'22217.3
2018-May-21 06:00N 35°59' W 005°12'918.7
2018-May-21 05:30N 35°58' W 005°24'917.0
2018-May-21 04:59N 35°55' W 005°34'1214.8
2018-May-21 04:12N 35°54' W 005°48'315.3
2018-May-21 04:01N 35°53' W 005°52'15016.6
2018-May-20 18:58N 36°27' W 008°53'1516.6
2018-May-20 18:05N 36°32' W 009°11'216.6
2018-May-20 17:58N 36°32' W 009°13'2716.0
2018-May-20 16:16N 36°52' W 009°36'416.8
2018-May-20 16:00N 36°56' W 009°37'1716.9
2018-May-20 15:00N 37°13' W 009°41'916.9
2018-May-20 14:29N 37°22' W 009°44'817.0
2018-May-20 14:00N 37°30' W 009°46'916.9
2018-May-20 13:27N 37°39' W 009°49'716.8
2018-May-20 13:00N 37°46' W 009°51'816.6
2018-May-20 12:30N 37°54' W 009°54'816.5
2018-May-20 12:00N 38°02' W 009°56'816.9
2018-May-20 11:30N 38°10' W 009°58'816.9
2018-May-20 11:00N 38°18' W 010°00'816.9
2018-May-20 10:30N 38°27' W 010°03'917.1
2018-May-20 10:00N 38°35' W 010°05'816.9
2018-May-20 09:30N 38°43' W 010°07'917.0
2018-May-20 09:00N 38°52' W 010°07'817.1
2018-May-20 08:30N 39°01' W 010°07'916.9
2018-May-20 08:00N 39°09' W 010°07'816.6
2018-May-20 07:30N 39°17' W 010°07'816.6
2018-May-20 07:00N 39°26' W 010°07'916.6
2018-May-20 06:28N 39°34' W 010°07'1016.7
2018-May-20 05:53N 39°44' W 010°07'716.8
2018-May-20 05:28N 39°51' W 010°07'816.5
2018-May-20 05:00N 39°59' W 010°07'916.7
2018-May-20 04:28N 40°08' W 010°07'6916.7
2018-May-20 00:20N 41°17' W 010°09'617.1
2018-May-20 00:00N 41°23' W 010°09'917.3
2018-May-19 23:30N 41°31' W 010°08'  

Dump ship's entire track history